createdAt,value
2023-01-21T00:00:06.104Z,35.42
2023-01-21T00:01:09.349Z,35.70
2023-01-21T00:02:12.960Z,38.80
2023-01-21T00:03:16.607Z,45.22
2023-01-21T00:04:19.550Z,36.50
2023-01-21T00:05:22.194Z,42.90
2023-01-21T00:06:24.715Z,46.90
2023-01-21T00:07:27.299Z,42.97
2023-01-21T00:08:30.052Z,39.25
2023-01-21T00:09:33.047Z,43.63
2023-01-21T00:10:35.519Z,44.78
2023-01-21T00:11:38.091Z,39.60
2023-01-21T00:12:40.611Z,45.25
2023-01-21T00:13:44.301Z,50.88
2023-01-21T00:14:46.930Z,41.97
2023-01-21T00:15:49.517Z,40.50
2023-01-21T00:16:51.990Z,47.92
2023-01-21T00:17:54.927Z,53.17
2023-01-21T00:18:57.613Z,52.08
2023-01-21T00:20:00.190Z,49.67
2023-01-21T00:21:03.301Z,51.80
2023-01-21T00:22:05.791Z,48.40
2023-01-21T00:23:08.336Z,51.67
2023-01-21T00:24:10.821Z,45.78
2023-01-21T00:25:13.375Z,49.83
2023-01-21T00:26:16.018Z,56.50
2023-01-21T00:27:18.538Z,51.22
2023-01-21T00:28:21.058Z,55.25
2023-01-21T00:29:23.701Z,54.53
2023-01-21T00:30:26.225Z,53.75
2023-01-21T00:31:28.838Z,50.65
2023-01-21T00:32:31.381Z,45.42
2023-01-21T00:33:34.987Z,43.83
2023-01-21T00:34:37.622Z,44.72
2023-01-21T00:35:42.287Z,51.97
2023-01-21T00:36:44.836Z,52.92
2023-01-21T00:37:47.349Z,51.78
2023-01-21T00:38:50.001Z,52.55
2023-01-21T00:39:52.506Z,42.63
2023-01-21T00:41:03.671Z,47.60
2023-01-21T00:42:06.428Z,47.53
2023-01-21T00:43:08.948Z,47.47
2023-01-21T00:44:11.475Z,43.70
2023-01-21T00:45:14.117Z,46.40
2023-01-21T00:46:17.009Z,47.92
2023-01-21T00:47:19.873Z,42.97
2023-01-21T00:48:22.512Z,46.17
2023-01-21T00:49:25.039Z,46.60
2023-01-21T00:50:27.560Z,41.08
2023-01-21T00:51:30.075Z,48.10
2023-01-21T00:52:32.605Z,46.70
2023-01-21T00:53:38.253Z,47.60
2023-01-21T00:54:40.763Z,41.53
2023-01-21T00:55:43.287Z,54.53
2023-01-21T00:56:45.917Z,54.17
2023-01-21T00:57:48.438Z,42.03
2023-01-21T00:58:50.963Z,47.75
2023-01-21T00:59:53.718Z,42.20
2023-01-21T01:01:11.634Z,45.88
2023-01-21T01:02:14.249Z,44.50
2023-01-21T01:03:16.767Z,38.30
2023-01-21T01:04:20.135Z,43.75
2023-01-21T01:05:22.649Z,45.35
2023-01-21T01:06:25.177Z,46.58
2023-01-21T01:07:27.819Z,39.63
2023-01-21T01:08:30.463Z,43.08
2023-01-21T01:09:33.098Z,42.40
2023-01-21T01:10:37.898Z,41.28
2023-01-21T01:11:40.419Z,48.10
2023-01-21T01:12:43.981Z,38.45
2023-01-21T01:13:46.664Z,38.97
2023-01-21T01:14:49.314Z,37.90
2023-01-21T01:15:56.106Z,46.45
2023-01-21T01:16:58.794Z,45.15
2023-01-21T01:18:01.550Z,50.53
2023-01-21T01:19:04.311Z,48.38
2023-01-21T01:20:07.795Z,43.90
2023-01-21T01:21:13.436Z,42.47
2023-01-21T01:22:16.438Z,37.38
2023-01-21T01:23:19.678Z,42.47
2023-01-21T01:24:22.564Z,39.85
2023-01-21T01:25:25.465Z,38.78
2023-01-21T01:26:28.564Z,42.15
2023-01-21T01:27:31.575Z,39.50
2023-01-21T01:28:34.973Z,44.15
2023-01-21T01:29:38.053Z,42.45
2023-01-21T01:30:41.204Z,41.65
2023-01-21T01:31:44.590Z,45.75
2023-01-21T01:32:47.654Z,40.13
2023-01-21T01:33:50.778Z,40.05
2023-01-21T01:34:53.904Z,44.00
2023-01-21T01:36:05.561Z,49.65
2023-01-21T01:37:08.664Z,42.92
2023-01-21T01:38:12.024Z,39.58
2023-01-21T01:39:15.269Z,41.58
2023-01-21T01:40:18.695Z,39.03
2023-01-21T01:41:27.850Z,44.47
2023-01-21T01:42:31.112Z,42.15
2023-01-21T01:43:53.826Z,35.95
2023-01-21T01:45:02.919Z,40.78
2023-01-21T01:46:06.074Z,41.78
2023-01-21T01:47:09.280Z,46.38
2023-01-21T01:48:18.280Z,45.38
2023-01-21T01:49:22.129Z,39.30
2023-01-21T01:50:29.213Z,37.85
2023-01-21T01:51:57.532Z,41.70
2023-01-21T01:53:01.868Z,41.13
2023-01-21T01:54:06.181Z,42.88
2023-01-21T01:55:11.340Z,41.28
2023-01-21T01:56:16.252Z,37.83
2023-01-21T01:57:22.855Z,42.88
2023-01-21T01:58:25.979Z,37.65
2023-01-21T01:59:30.790Z,34.03
2023-01-21T02:00:35.340Z,46.45
2023-01-21T02:01:38.363Z,38.50
2023-01-21T02:02:43.196Z,45.22
2023-01-21T02:03:53.225Z,42.30
2023-01-21T02:04:59.588Z,47.00
2023-01-21T02:06:03.201Z,38.85
2023-01-21T02:07:06.071Z,41.47
2023-01-21T02:08:09.609Z,48.22
2023-01-21T02:09:12.372Z,40.97
2023-01-21T02:10:19.982Z,40.22
2023-01-21T02:11:22.815Z,42.80
2023-01-21T02:12:25.759Z,38.53
2023-01-21T02:13:31.761Z,37.78
2023-01-21T02:14:42.870Z,41.17
2023-01-21T02:16:16.024Z,33.15
2023-01-21T02:17:43.647Z,33.90
2023-01-21T02:18:55.053Z,38.35
2023-01-21T02:20:16.215Z,36.45
2023-01-21T02:21:37.415Z,33.10
2023-01-21T02:23:07.815Z,33.90
2023-01-21T02:24:34.590Z,39.33
2023-01-21T02:25:36.976Z,45.30
2023-01-21T02:26:45.382Z,37.38
2023-01-21T02:27:55.062Z,37.05
2023-01-21T02:29:23.180Z,32.47
2023-01-21T02:30:47.685Z,33.70
2023-01-21T02:32:05.059Z,31.45
2023-01-21T02:33:23.676Z,38.53
2023-01-21T02:34:34.926Z,37.67
2023-01-21T02:35:48.262Z,30.77
2023-01-21T02:37:02.061Z,35.95
2023-01-21T02:38:16.104Z,35.53
2023-01-21T02:39:57.393Z,36.00
2023-01-21T02:41:25.704Z,35.58
2023-01-21T02:42:58.710Z,28.48
2023-01-21T02:44:13.348Z,30.45
2023-01-21T02:45:39.406Z,39.65
2023-01-21T02:46:47.595Z,34.20
2023-01-21T02:47:57.045Z,42.10
2023-01-21T02:49:07.486Z,36.00
2023-01-21T02:50:19.104Z,44.67
2023-01-21T02:51:23.319Z,34.15
2023-01-21T02:52:26.554Z,39.13
2023-01-21T02:53:34.599Z,38.88
2023-01-21T02:54:40.304Z,40.45
2023-01-21T02:55:43.607Z,38.40
2023-01-21T02:56:46.235Z,38.55
2023-01-21T02:57:53.077Z,38.55
2023-01-21T02:58:59.796Z,41.08
2023-01-21T03:00:08.201Z,45.50
2023-01-21T03:01:46.760Z,40.47
2023-01-21T03:02:52.121Z,34.35
2023-01-21T03:04:25.483Z,45.10
2023-01-21T03:05:49.367Z,40.50
2023-01-21T03:07:12.051Z,35.10
2023-01-21T03:08:30.538Z,42.72
2023-01-21T03:09:34.381Z,38.97
2023-01-21T03:10:44.456Z,43.88
2023-01-21T03:11:56.821Z,40.40
2023-01-21T03:13:07.139Z,39.42
2023-01-21T03:14:39.062Z,43.58
2023-01-21T03:16:12.860Z,36.25
2023-01-21T03:17:33.670Z,37.00
2023-01-21T03:18:45.454Z,39.78
2023-01-21T03:20:07.529Z,39.05
2023-01-21T03:21:17.232Z,33.97
2023-01-21T03:22:24.794Z,34.37
2023-01-21T03:23:34.396Z,34.03
2023-01-21T03:24:40.884Z,44.17
2023-01-21T03:25:46.402Z,39.20
2023-01-21T03:26:53.964Z,39.25
2023-01-21T03:27:58.812Z,41.45
2023-01-21T03:29:10.287Z,47.13
2023-01-21T03:30:19.162Z,42.58
2023-01-21T03:31:28.509Z,45.70
2023-01-21T03:32:35.130Z,35.75
2023-01-21T03:33:41.023Z,41.03
2023-01-21T03:34:51.454Z,38.60
2023-01-21T03:35:56.259Z,37.90
2023-01-21T03:37:08.384Z,34.78
2023-01-21T03:38:17.506Z,39.08
2023-01-21T03:39:56.148Z,39.30
2023-01-21T03:41:06.225Z,40.65
2023-01-21T03:42:10.064Z,39.72
2023-01-21T03:43:13.308Z,46.35
2023-01-21T03:44:17.035Z,43.75
2023-01-21T03:45:36.973Z,39.60
2023-01-21T03:47:14.516Z,38.70
2023-01-21T03:48:25.436Z,38.30
2023-01-21T03:50:14.919Z,42.08
2023-01-21T03:51:28.200Z,43.92
2023-01-21T03:52:31.931Z,40.17
2023-01-21T03:53:35.172Z,39.05
2023-01-21T03:54:39.368Z,44.58
2023-01-21T03:55:42.611Z,39.53
2023-01-21T03:56:45.738Z,47.95
2023-01-21T03:57:49.092Z,40.60
2023-01-21T03:58:52.214Z,35.42
2023-01-21T03:59:56.657Z,36.80
2023-01-21T04:01:00.070Z,38.92
2023-01-21T04:02:03.239Z,43.30
2023-01-21T04:03:06.147Z,41.80
2023-01-21T04:04:10.581Z,37.75
2023-01-21T04:05:14.422Z,33.58
2023-01-21T04:06:23.105Z,37.17
2023-01-21T04:07:25.948Z,33.97
2023-01-21T04:08:28.604Z,36.08
2023-01-21T04:09:31.164Z,38.72
2023-01-21T04:10:33.753Z,45.47
2023-01-21T04:11:36.332Z,38.63
2023-01-21T04:12:38.971Z,34.25
2023-01-21T04:13:41.810Z,39.47
2023-01-21T04:14:44.492Z,33.85
2023-01-21T04:15:47.130Z,37.03
2023-01-21T04:16:49.655Z,35.90
2023-01-21T04:17:52.370Z,30.98
2023-01-21T04:18:55.182Z,42.50
2023-01-21T04:19:57.811Z,38.70
2023-01-21T04:21:00.454Z,37.40
2023-01-21T04:22:03.056Z,37.50
2023-01-21T04:23:05.693Z,31.75
2023-01-21T04:24:08.255Z,35.00
2023-01-21T04:25:10.780Z,31.98
2023-01-21T04:26:13.421Z,30.83
2023-01-21T04:27:15.900Z,35.53
2023-01-21T04:28:19.536Z,37.95
2023-01-21T04:29:22.059Z,40.28
2023-01-21T04:30:24.586Z,34.63
2023-01-21T04:31:27.103Z,31.17
2023-01-21T04:32:29.739Z,32.65
2023-01-21T04:33:32.258Z,36.03
2023-01-21T04:34:34.785Z,32.40
2023-01-21T04:35:37.422Z,30.98
2023-01-21T04:36:39.957Z,34.50
2023-01-21T04:37:42.481Z,28.80
2023-01-21T04:38:44.986Z,37.13
2023-01-21T04:39:47.505Z,31.60
2023-01-21T04:40:50.031Z,29.27
2023-01-21T04:41:52.666Z,29.23
2023-01-21T04:42:55.187Z,32.85
2023-01-21T04:43:57.717Z,32.83
2023-01-21T04:45:00.348Z,40.53
2023-01-21T04:46:03.026Z,37.97
2023-01-21T04:47:05.641Z,33.97
2023-01-21T04:48:08.271Z,33.90
2023-01-21T04:49:10.798Z,33.40
2023-01-21T04:50:14.803Z,28.92
2023-01-21T04:51:17.465Z,33.95
2023-01-21T04:52:20.156Z,25.90
2023-01-21T04:53:22.681Z,32.40
2023-01-21T04:54:25.317Z,30.83
2023-01-21T04:55:27.957Z,34.67
2023-01-21T04:56:30.479Z,33.22
2023-01-21T04:57:32.996Z,35.08
2023-01-21T04:58:35.524Z,30.65
2023-01-21T04:59:38.159Z,26.60
2023-01-21T05:00:40.680Z,29.98
2023-01-21T05:01:43.101Z,30.08
2023-01-21T05:02:45.608Z,32.63
2023-01-21T05:03:48.124Z,33.20
2023-01-21T05:04:50.644Z,33.05
2023-01-21T05:05:53.176Z,36.72
2023-01-21T05:06:56.286Z,39.45
2023-01-21T05:07:58.807Z,36.90
2023-01-21T05:09:01.329Z,36.55
2023-01-21T05:10:03.980Z,32.40
2023-01-21T05:11:09.513Z,28.95
2023-01-21T05:12:12.014Z,35.65
2023-01-21T05:13:14.537Z,32.33
2023-01-21T05:14:17.178Z,33.65
2023-01-21T05:15:19.958Z,26.75
2023-01-21T05:16:23.281Z,28.67
2023-01-21T05:17:26.549Z,33.03
2023-01-21T05:18:29.064Z,32.78
2023-01-21T05:19:31.587Z,33.22
2023-01-21T05:20:34.348Z,25.88
2023-01-21T05:21:36.868Z,29.58
2023-01-21T05:22:39.635Z,31.67
2023-01-21T05:23:42.401Z,26.00
2023-01-21T05:24:45.285Z,32.83
2023-01-21T05:25:49.368Z,37.17
2023-01-21T05:26:52.360Z,31.08
2023-01-21T05:27:55.603Z,29.80
2023-01-21T05:28:58.609Z,31.30
2023-01-21T05:30:01.616Z,28.95
2023-01-21T05:31:05.103Z,31.38
2023-01-21T05:32:08.093Z,31.33
2023-01-21T05:33:11.209Z,35.00
2023-01-21T05:34:14.330Z,29.33
2023-01-21T05:35:19.494Z,33.33
2023-01-21T05:36:22.747Z,37.30
2023-01-21T05:37:25.856Z,37.17
2023-01-21T05:38:48.911Z,31.45
2023-01-21T05:39:52.063Z,28.40
2023-01-21T05:41:02.582Z,29.73
2023-01-21T05:42:05.704Z,29.50
2023-01-21T05:43:08.827Z,31.60
2023-01-21T05:44:11.946Z,31.17
2023-01-21T05:45:15.549Z,35.78
2023-01-21T05:46:18.693Z,26.38
2023-01-21T05:47:21.795Z,35.53
2023-01-21T05:48:25.155Z,30.30
2023-01-21T05:49:28.277Z,26.13
2023-01-21T05:50:32.979Z,32.72
2023-01-21T05:51:36.115Z,28.60
2023-01-21T05:52:39.923Z,33.90
2023-01-21T05:53:43.163Z,33.35
2023-01-21T05:55:00.652Z,28.65
2023-01-21T05:56:05.491Z,34.47
2023-01-21T05:57:08.613Z,31.35
2023-01-21T05:58:11.969Z,33.83
2023-01-21T05:59:15.212Z,36.17
2023-01-21T06:00:19.335Z,32.05
2023-01-21T06:01:23.023Z,27.13
2023-01-21T06:02:26.322Z,35.28
2023-01-21T06:03:29.766Z,34.13
2023-01-21T06:04:32.739Z,32.00
2023-01-21T06:05:35.504Z,35.80
2023-01-21T06:06:38.386Z,42.88
2023-01-21T06:07:41.032Z,33.55
2023-01-21T06:08:43.909Z,32.55
2023-01-21T06:09:46.667Z,39.33
2023-01-21T06:10:49.681Z,33.33
2023-01-21T06:11:52.315Z,40.15
2023-01-21T06:12:55.081Z,36.40
2023-01-21T06:13:57.615Z,30.70
2023-01-21T06:15:00.648Z,40.20
2023-01-21T06:16:03.318Z,31.05
2023-01-21T06:17:05.808Z,34.92
2023-01-21T06:18:08.816Z,37.17
2023-01-21T06:19:11.413Z,29.58
2023-01-21T06:20:14.213Z,35.53
2023-01-21T06:21:16.750Z,32.13
2023-01-21T06:22:24.200Z,31.38
2023-01-21T06:23:27.970Z,44.30
2023-01-21T06:24:30.737Z,36.40
2023-01-21T06:25:34.464Z,27.55
2023-01-21T06:26:37.013Z,35.80
2023-01-21T06:27:39.792Z,39.10
2023-01-21T06:28:42.669Z,32.28
2023-01-21T06:29:45.308Z,35.83
2023-01-21T06:30:47.996Z,33.92
2023-01-21T06:31:50.850Z,35.53
2023-01-21T06:32:53.717Z,33.95
2023-01-21T06:33:56.189Z,32.55
2023-01-21T06:34:58.862Z,34.50
2023-01-21T06:36:01.382Z,33.25
2023-01-21T06:37:04.023Z,31.80
2023-01-21T06:38:06.543Z,32.58
2023-01-21T06:39:12.086Z,31.60
2023-01-21T06:40:15.490Z,32.00
2023-01-21T06:41:18.302Z,37.08
2023-01-21T06:42:21.066Z,27.92
2023-01-21T06:43:23.592Z,36.08
2023-01-21T06:44:26.109Z,37.08
2023-01-21T06:45:28.745Z,40.17
2023-01-21T06:46:31.428Z,35.22
2023-01-21T06:47:34.034Z,34.50
2023-01-21T06:48:36.676Z,28.20
2023-01-21T06:49:39.677Z,34.78
2023-01-21T06:50:42.194Z,33.95
2023-01-21T06:51:44.711Z,41.13
2023-01-21T06:52:48.801Z,37.45
2023-01-21T06:53:51.433Z,33.97
2023-01-21T06:54:53.951Z,33.58
2023-01-21T06:55:56.474Z,31.42
2023-01-21T06:56:59.248Z,40.25
2023-01-21T06:58:01.752Z,32.78
2023-01-21T06:59:04.878Z,42.90
2023-01-21T07:00:08.743Z,38.08
2023-01-21T07:01:11.245Z,38.45
2023-01-21T07:02:13.767Z,36.13
2023-01-21T07:03:16.281Z,31.33
2023-01-21T07:04:18.800Z,36.75
2023-01-21T07:05:21.236Z,32.78
2023-01-21T07:06:23.734Z,33.65
2023-01-21T07:07:26.754Z,35.85
2023-01-21T07:08:29.249Z,32.97
2023-01-21T07:09:32.128Z,41.47
2023-01-21T07:10:34.648Z,38.97
2023-01-21T07:11:37.298Z,30.85
2023-01-21T07:12:39.816Z,36.28
2023-01-21T07:13:42.334Z,35.75
2023-01-21T07:14:44.855Z,32.20
2023-01-21T07:15:48.037Z,31.95
2023-01-21T07:16:50.756Z,35.97
2023-01-21T07:17:54.462Z,28.30
2023-01-21T07:18:57.102Z,32.47
2023-01-21T07:19:59.869Z,33.38
2023-01-21T07:21:02.627Z,41.03
2023-01-21T07:22:05.169Z,31.52
2023-01-21T07:23:08.394Z,36.63
2023-01-21T07:24:12.358Z,26.45
2023-01-21T07:25:15.555Z,34.95
2023-01-21T07:26:19.318Z,29.55
2023-01-21T07:27:24.244Z,32.20
2023-01-21T07:28:27.239Z,34.92
2023-01-21T07:29:30.119Z,26.55
2023-01-21T07:30:33.122Z,37.17
2023-01-21T07:31:36.371Z,33.05
2023-01-21T07:32:39.488Z,32.63
2023-01-21T07:33:42.609Z,26.98
2023-01-21T07:34:45.731Z,34.08
2023-01-21T07:35:48.847Z,33.08
2023-01-21T07:36:52.330Z,31.33
2023-01-21T07:37:55.458Z,32.20
2023-01-21T07:38:58.821Z,31.40
2023-01-21T07:40:01.942Z,31.77
2023-01-21T07:41:05.064Z,34.35
2023-01-21T07:42:10.471Z,31.80
2023-01-21T07:43:13.584Z,29.58
2023-01-21T07:44:16.716Z,28.58
2023-01-21T07:45:20.786Z,28.85
2023-01-21T07:46:24.441Z,33.88
2023-01-21T07:47:27.631Z,29.83
2023-01-21T07:48:30.870Z,34.28
2023-01-21T07:49:33.995Z,34.78
2023-01-21T07:50:37.833Z,36.92
2023-01-21T07:51:41.079Z,36.03
2023-01-21T07:52:44.197Z,40.33
2023-01-21T07:53:47.811Z,37.25
2023-01-21T07:54:51.048Z,30.63
2023-01-21T07:55:54.283Z,35.70
2023-01-21T07:56:57.526Z,40.55
2023-01-21T07:58:00.905Z,40.50
2023-01-21T07:59:04.247Z,44.63
2023-01-21T08:00:08.811Z,40.53
2023-01-21T08:01:14.692Z,43.45
2023-01-21T08:02:18.201Z,32.05
2023-01-21T08:03:23.577Z,36.15
2023-01-21T08:04:26.816Z,32.30
2023-01-21T08:05:29.939Z,42.58
2023-01-21T08:06:32.820Z,38.97
2023-01-21T08:07:35.941Z,36.13
2023-01-21T08:08:38.823Z,38.22
2023-01-21T08:09:41.829Z,33.85
2023-01-21T08:10:44.830Z,47.53
2023-01-21T08:11:47.590Z,37.15
2023-01-21T08:12:50.356Z,43.28
2023-01-21T08:13:53.112Z,38.78
2023-01-21T08:14:55.757Z,39.70
2023-01-21T08:15:58.695Z,41.03
2023-01-21T08:17:01.996Z,32.72
2023-01-21T08:18:04.641Z,34.90
2023-01-21T08:19:07.208Z,32.67
2023-01-21T08:20:11.289Z,44.70
2023-01-21T08:21:13.814Z,38.85
2023-01-21T08:22:16.334Z,38.38
2023-01-21T08:23:18.854Z,32.70
2023-01-21T08:24:21.733Z,40.03
2023-01-21T08:25:24.221Z,35.25
2023-01-21T08:26:26.895Z,38.10
2023-01-21T08:27:29.412Z,33.05
2023-01-21T08:28:31.898Z,36.70
2023-01-21T08:29:34.575Z,41.88
2023-01-21T08:30:37.248Z,42.05
2023-01-21T08:31:39.926Z,38.20
2023-01-21T08:32:42.496Z,37.63
2023-01-21T08:33:45.407Z,55.78
2023-01-21T08:34:47.866Z,36.88
2023-01-21T08:35:50.419Z,38.28
2023-01-21T08:36:53.033Z,44.88
2023-01-21T08:37:57.623Z,38.30
2023-01-21T08:39:02.104Z,33.10
2023-01-21T08:40:04.956Z,37.83
2023-01-21T08:41:07.679Z,37.15
2023-01-21T08:42:10.341Z,50.85
2023-01-21T08:43:13.228Z,47.63
2023-01-21T08:44:15.871Z,37.00
2023-01-21T08:45:18.918Z,38.22
2023-01-21T08:46:21.747Z,41.15
2023-01-21T08:47:25.496Z,45.50
2023-01-21T08:48:29.924Z,42.97
2023-01-21T08:49:35.204Z,40.55
2023-01-21T08:50:38.082Z,41.67
2023-01-21T08:51:41.686Z,39.05
2023-01-21T08:52:51.154Z,37.55
2023-01-21T08:53:53.799Z,39.60
2023-01-21T08:54:56.311Z,36.05
2023-01-21T08:56:03.639Z,41.17
2023-01-21T08:57:06.519Z,39.15
2023-01-21T08:58:09.169Z,43.88
2023-01-21T08:59:11.674Z,31.50
2023-01-21T09:00:14.673Z,34.63
2023-01-21T09:01:17.218Z,45.38
2023-01-21T09:02:19.904Z,38.47
2023-01-21T09:03:22.719Z,33.47
2023-01-21T09:04:25.245Z,46.78
2023-01-21T09:05:27.756Z,43.55
2023-01-21T09:06:30.648Z,40.42
2023-01-21T09:07:33.167Z,41.55
2023-01-21T09:08:36.642Z,40.00
2023-01-21T09:09:39.163Z,41.63
2023-01-21T09:11:00.534Z,31.73
2023-01-21T09:12:04.871Z,36.45
2023-01-21T09:13:08.951Z,40.53
2023-01-21T09:14:11.708Z,38.22
2023-01-21T09:15:14.634Z,40.28
2023-01-21T09:16:20.602Z,34.17
2023-01-21T09:17:23.581Z,43.33
2023-01-21T09:18:26.217Z,41.15
2023-01-21T09:19:29.100Z,32.28
2023-01-21T09:20:31.758Z,42.05
2023-01-21T09:21:37.995Z,34.35
2023-01-21T09:22:40.506Z,33.42
2023-01-21T09:23:43.277Z,36.88
2023-01-21T09:24:46.037Z,43.70
2023-01-21T09:25:48.670Z,37.65
2023-01-21T09:26:51.671Z,37.08
2023-01-21T09:27:54.570Z,41.83
2023-01-21T09:28:59.356Z,39.78
2023-01-21T09:30:02.360Z,38.67
2023-01-21T09:31:08.603Z,42.53
2023-01-21T09:32:11.480Z,36.42
2023-01-21T09:33:15.811Z,37.00
2023-01-21T09:34:18.803Z,39.53
2023-01-21T09:35:21.935Z,32.70
2023-01-21T09:36:28.410Z,42.08
2023-01-21T09:37:35.014Z,41.38
2023-01-21T09:38:38.251Z,36.88
2023-01-21T09:39:41.374Z,39.88
2023-01-21T09:40:46.417Z,41.80
2023-01-21T09:41:55.656Z,34.05
2023-01-21T09:43:03.458Z,34.38
2023-01-21T09:44:15.461Z,42.50
2023-01-21T09:45:20.621Z,35.85
2023-01-21T09:46:32.625Z,36.85
2023-01-21T09:47:41.987Z,42.20
2023-01-21T09:48:47.630Z,34.08
2023-01-21T09:49:55.708Z,35.35
2023-01-21T09:51:03.772Z,39.65
2023-01-21T09:52:43.914Z,31.50
2023-01-21T09:53:53.395Z,28.92
2023-01-21T09:54:58.706Z,32.17
2023-01-21T09:56:11.519Z,37.25
2023-01-21T09:57:23.526Z,32.05
2023-01-21T09:58:35.163Z,32.50
2023-01-21T09:59:47.897Z,35.30
2023-01-21T10:01:17.433Z,33.13
2023-01-21T10:02:54.133Z,32.63
2023-01-21T10:04:06.016Z,29.85
2023-01-21T10:05:40.340Z,32.67
2023-01-21T10:06:51.857Z,32.67
2023-01-21T10:08:06.141Z,28.70
2023-01-21T10:09:42.382Z,31.02
2023-01-21T10:10:56.307Z,30.65
2023-01-21T10:12:13.346Z,32.05
2023-01-21T10:13:25.378Z,29.27
2023-01-21T10:14:36.868Z,28.10
2023-01-21T10:15:49.241Z,32.92
2023-01-21T10:17:12.327Z,39.22
2023-01-21T10:18:20.314Z,27.50
2023-01-21T10:19:28.528Z,31.55
2023-01-21T10:20:44.490Z,32.83
2023-01-21T10:21:51.098Z,26.52
2023-01-21T10:23:04.415Z,27.52
2023-01-21T10:24:12.404Z,28.70
2023-01-21T10:25:30.234Z,27.88
2023-01-21T10:26:34.729Z,27.65
2023-01-21T10:27:38.570Z,28.80
2023-01-21T10:28:47.931Z,32.92
2023-01-21T10:29:57.654Z,32.85
2023-01-21T10:31:11.841Z,34.25
2023-01-21T10:32:18.788Z,28.65
2023-01-21T10:33:25.306Z,27.90
2023-01-21T10:34:32.614Z,29.65
2023-01-21T10:35:46.143Z,23.02
2023-01-21T10:36:59.626Z,28.23
2023-01-21T10:38:16.416Z,27.60
2023-01-21T10:39:43.071Z,26.40
2023-01-21T10:41:08.740Z,24.30
2023-01-21T10:42:37.759Z,23.08
2023-01-21T10:43:55.068Z,22.55
2023-01-21T10:44:57.705Z,26.38
2023-01-21T10:46:31.665Z,22.92
2023-01-21T10:47:36.948Z,23.48
2023-01-21T10:48:46.904Z,28.15
2023-01-21T10:50:46.457Z,26.47
2023-01-21T10:52:34.441Z,22.02
2023-01-21T10:54:18.130Z,21.13
2023-01-21T10:55:57.950Z,19.80
2023-01-21T10:57:21.830Z,23.65
2023-01-21T10:58:36.115Z,21.27
2023-01-21T10:59:40.325Z,19.25
2023-01-21T11:00:48.715Z,20.08
2023-01-21T11:02:02.753Z,19.58
2023-01-21T11:03:16.922Z,22.27
2023-01-21T11:04:24.256Z,20.85
2023-01-21T11:05:27.368Z,19.27
2023-01-21T11:06:33.614Z,20.42
2023-01-21T11:07:40.081Z,20.80
2023-01-21T11:08:45.727Z,18.48
2023-01-21T11:09:49.207Z,22.05
2023-01-21T11:10:56.171Z,22.08
2023-01-21T11:11:58.806Z,22.48
2023-01-21T11:13:01.333Z,20.67
2023-01-21T11:14:03.848Z,22.63
2023-01-21T11:15:20.451Z,19.52
2023-01-21T11:16:45.040Z,19.70
2023-01-21T11:17:50.533Z,21.27
2023-01-21T11:18:54.023Z,21.83
2023-01-21T11:20:01.470Z,24.30
2023-01-21T11:21:19.577Z,16.33
2023-01-21T11:22:23.567Z,19.33
2023-01-21T11:23:31.473Z,18.13
2023-01-21T11:24:51.662Z,20.02
2023-01-21T11:26:10.260Z,23.55
2023-01-21T11:27:28.850Z,15.88
2023-01-21T11:28:31.948Z,23.30
2023-01-21T11:29:41.432Z,20.83
2023-01-21T11:30:51.131Z,22.65
2023-01-21T11:32:05.474Z,19.55
2023-01-21T11:33:13.597Z,21.92
2023-01-21T11:34:17.921Z,21.05
2023-01-21T11:35:23.320Z,25.50
2023-01-21T11:36:26.442Z,24.08
2023-01-21T11:37:31.724Z,21.40
2023-01-21T11:38:36.533Z,23.17
2023-01-21T11:39:56.326Z,22.60
2023-01-21T11:41:10.836Z,20.90
2023-01-21T11:42:17.455Z,16.52
2023-01-21T11:43:46.017Z,22.00
2023-01-21T11:45:22.377Z,23.17
2023-01-21T11:46:36.899Z,22.73
2023-01-21T11:47:50.220Z,19.23
2023-01-21T11:49:16.389Z,19.48
2023-01-21T11:50:26.596Z,16.00
2023-01-21T11:51:29.825Z,17.05
2023-01-21T11:52:32.951Z,16.08
2023-01-21T11:53:36.071Z,18.08
2023-01-21T11:54:40.755Z,15.60
2023-01-21T11:55:53.844Z,17.15
2023-01-21T11:57:00.435Z,20.05
2023-01-21T11:58:03.798Z,19.35
2023-01-21T11:59:42.203Z,17.60
2023-01-21T12:00:47.863Z,18.75
2023-01-21T12:01:59.125Z,17.63
2023-01-21T12:03:06.331Z,15.13
2023-01-21T12:04:15.935Z,16.75
2023-01-21T12:05:43.532Z,18.60
2023-01-21T12:06:49.055Z,16.30
2023-01-21T12:07:53.016Z,20.95
2023-01-21T12:09:02.740Z,19.58
2023-01-21T12:10:27.697Z,18.38
2023-01-21T12:11:31.902Z,20.70
2023-01-21T12:12:53.384Z,15.27
2023-01-21T12:14:15.468Z,17.90
2023-01-21T12:15:25.427Z,17.40
2023-01-21T12:16:33.724Z,13.60
2023-01-21T12:17:56.631Z,17.02
2023-01-21T12:19:17.996Z,17.02
2023-01-21T12:20:29.161Z,16.80
2023-01-21T12:21:43.680Z,17.17
2023-01-21T12:23:01.498Z,15.35
2023-01-21T12:24:06.647Z,14.63
2023-01-21T12:25:46.208Z,15.15
2023-01-21T12:26:56.285Z,15.07
2023-01-21T12:28:15.294Z,14.23
2023-01-21T12:29:39.058Z,12.68
2023-01-21T12:31:14.287Z,16.45
2023-01-21T12:32:43.252Z,14.95
2023-01-21T12:33:52.014Z,15.80
2023-01-21T12:35:08.822Z,14.82
2023-01-21T12:36:19.383Z,15.82
2023-01-21T12:37:55.016Z,15.77
2023-01-21T12:39:09.541Z,12.75
2023-01-21T12:40:33.059Z,19.85
2023-01-21T12:41:38.457Z,19.73
2023-01-21T12:42:48.058Z,15.38
2023-01-21T12:44:12.059Z,14.80
2023-01-21T12:45:19.869Z,18.08
2023-01-21T12:46:35.297Z,13.77
2023-01-21T12:47:46.845Z,14.70
2023-01-21T12:49:12.431Z,16.20
2023-01-21T12:50:17.563Z,17.48
2023-01-21T12:51:38.710Z,16.15
2023-01-21T12:53:06.673Z,19.52
2023-01-21T12:54:23.712Z,17.02
2023-01-21T12:55:51.067Z,15.63
2023-01-21T12:57:34.874Z,14.68
2023-01-21T12:58:45.309Z,15.95
2023-01-21T13:00:00.799Z,15.55
2023-01-21T13:01:13.358Z,16.70
2023-01-21T13:02:18.702Z,13.40
2023-01-21T13:03:37.517Z,18.20
2023-01-21T13:05:08.966Z,16.42
2023-01-21T13:06:29.726Z,16.02
2023-01-21T13:07:56.963Z,15.38
2023-01-21T13:09:16.160Z,13.00
2023-01-21T13:10:39.315Z,15.38
2023-01-21T13:12:11.369Z,17.42
2023-01-21T13:13:28.936Z,15.48
2023-01-21T13:14:39.083Z,15.30
2023-01-21T13:15:45.563Z,15.82
2023-01-21T13:16:53.368Z,14.40
2023-01-21T13:18:02.157Z,17.58
2023-01-21T13:19:04.897Z,17.70
2023-01-21T13:20:18.510Z,16.83
2023-01-21T13:21:47.857Z,15.80
2023-01-21T13:23:07.418Z,13.18
2023-01-21T13:24:43.419Z,15.45
2023-01-21T13:26:00.164Z,17.25
2023-01-21T13:27:15.593Z,20.13
2023-01-21T13:28:26.990Z,17.92
2023-01-21T13:30:09.952Z,17.17
2023-01-21T13:31:17.867Z,16.23
2023-01-21T13:32:59.874Z,16.42
2023-01-21T13:34:39.313Z,20.60
2023-01-21T13:35:47.998Z,14.70
2023-01-21T13:36:59.999Z,19.80
2023-01-21T13:38:42.613Z,20.85
2023-01-21T13:39:55.445Z,18.77
2023-01-21T13:41:38.532Z,20.27
2023-01-21T13:42:56.181Z,14.65
2023-01-21T13:44:20.772Z,16.80
2023-01-21T13:45:38.915Z,17.90
2023-01-21T13:46:59.776Z,19.98
2023-01-21T13:48:41.910Z,17.70
2023-01-21T13:50:18.108Z,17.10
2023-01-21T13:51:33.503Z,16.42
2023-01-21T13:52:42.634Z,21.10
2023-01-21T13:53:58.011Z,19.70
2023-01-21T13:55:14.430Z,19.08
2023-01-21T13:56:27.392Z,17.80
2023-01-21T13:57:39.275Z,19.17
2023-01-21T13:59:01.238Z,18.17
2023-01-21T14:00:29.198Z,21.35
2023-01-21T14:01:46.322Z,20.48
2023-01-21T14:03:16.963Z,21.13
2023-01-21T14:04:59.206Z,21.52
2023-01-21T14:06:11.448Z,20.75
2023-01-21T14:07:30.410Z,16.85
2023-01-21T14:08:43.850Z,19.90
2023-01-21T14:09:57.056Z,17.98
2023-01-21T14:11:09.656Z,18.77
2023-01-21T14:12:31.857Z,17.48
2023-01-21T14:14:08.102Z,19.13
2023-01-21T14:15:38.224Z,18.25
2023-01-21T14:16:55.869Z,19.90
2023-01-21T14:18:16.920Z,19.83
2023-01-21T14:20:53.537Z,18.73
2023-01-21T14:22:23.406Z,18.50
2023-01-21T14:23:28.516Z,20.80
2023-01-21T14:24:33.917Z,20.05
2023-01-21T14:25:55.045Z,18.77
2023-01-21T14:27:22.051Z,22.70
2023-01-21T14:28:41.607Z,18.42
2023-01-21T14:30:13.452Z,19.08
2023-01-21T14:31:33.313Z,19.30
2023-01-21T14:32:50.733Z,21.80
2023-01-21T14:34:00.837Z,21.98
2023-01-21T14:35:13.946Z,18.65
2023-01-21T14:36:20.138Z,17.58
2023-01-21T14:37:34.934Z,18.48
2023-01-21T14:38:52.216Z,20.13
2023-01-21T14:40:30.377Z,23.40
2023-01-21T14:41:54.592Z,16.90
2023-01-21T14:42:58.010Z,21.80
2023-01-21T14:44:00.617Z,23.75
2023-01-21T14:45:08.075Z,21.60